MST,Max TemperatureF,Mean TemperatureF,Min TemperatureF,Max Dew PointF,MeanDew PointF,Min DewpointF,Max Humidity, Mean Humidity, Min Humidity, Max Sea Level PressureIn, Mean Sea Level PressureIn, Min Sea Level PressureIn, Max VisibilityMiles, Mean VisibilityMiles, Min VisibilityMiles, Max Wind SpeedMPH, Mean Wind SpeedMPH, Max Gust SpeedMPH,PrecipitationIn, CloudCover, Events, WindDirDegrees
2010-11-1,65,50,34,37,34,31,85,59,32,30.34,30.26,30.10,10,10,10,21,8,24,0.00,1,,337
2010-11-2,72,52,32,39,34,30,89,58,26,30.36,30.29,30.24,10,10,10,29,11,35,0.00,0,,322
2010-11-3,56,44,32,34,24,14,76,49,22,30.56,30.50,30.37,10,10,10,32,15,39,0.00,1,,327
2010-11-4,53,40,26,20,16,13,68,45,22,30.54,30.42,30.26,10,10,10,14,7,22,0.00,0,,350
2010-11-5,68,47,25,25,20,14,63,41,19,30.25,30.06,29.91,10,10,10,12,4,14,0.00,0,,135
2010-11-6,79,62,44,29,27,23,46,31,15,29.98,29.92,29.87,10,10,10,15,7,17,0.00,0,,339
2010-11-7,75,59,42,37,32,27,54,37,20,29.88,29.79,29.65,10,10,10,10,4,14,0.00,0,,326
2010-11-8,76,57,38,32,28,24,64,40,16,29.70,29.60,29.52,10,10,10,22,7,26,0.00,0,,222
2010-11-9,50,43,35,36,31,28,89,65,41,29.83,29.69,29.53,10,10,9,44,29,53,0.01,5,Rain-Snow,333
2010-11-10,48,41,33,27,21,16,82,55,28,30.15,29.95,29.79,10,10,10,24,10,30,0.00,7,,307
2010-11-11,45,32,18,23,18,15,81,57,33,30.48,30.36,30.17,10,10,10,10,2,14,0.00,4,,222
2010-11-12,49,32,14,21,16,12,88,56,23,30.47,30.39,30.27,10,10,10,12,4,15,0.00,0,,336
2010-11-13,48,33,17,27,22,16,84,61,37,30.32,30.20,29.99,10,10,10,29,15,36,0.00,4,,326
2010-11-14,45,30,14,34,25,13,92,73,53,30.07,29.88,29.68,10,10,10,23,7,29,0.01,5,Rain,309
2010-11-15,41,33,24,34,31,26,100,80,60,29.90,29.81,29.70,10,10,10,26,11,31,0.01,7,Rain,325
2010-11-16,41,31,21,34,27,19,100,82,64,30.04,29.73,29.53,10,9,0,14,5,35,T,6,Fog-Rain-Snow,88
2010-11-17,33,28,23,31,27,21,100,89,78,30.38,30.23,30.05,10,7,1,18,11,22,0.02,7,Snow,23
2010-11-18,58,39,19,33,24,19,100,62,23,30.16,29.90,29.64,10,9,2,39,13,52,0.00,2,,165
2010-11-19,34,26,17,25,13,7,88,69,50,30.21,30.10,29.91,10,10,10,25,12,31,0.00,4,,28
2010-11-20,22,18,14,15,11,7,84,73,62,30.18,30.01,29.82,10,10,10,20,11,24,0.00,8,,119
2010-11-21,23,17,11,16,10,4,92,70,47,29.99,29.89,29.72,10,7,0,29,12,35,0.17,7,Fog-Snow,18
2010-11-22,11,1,-10,9,2,-12,95,84,73,30.22,29.90,29.73,10,5,1,15,6,17,0.11,6,Snow,28
2010-11-23,16,3,-11,11,-2,-11,100,90,80,30.24,29.95,29.57,10,6,0,28,8,33,T,4,Fog-Snow,118
2010-11-24,11,1,-10,3,-3,-10,88,73,58,30.06,29.87,29.57,10,7,1,43,14,53,T,4,Snow,341
2010-11-25,31,12,-8,20,2,-10,82,65,47,30.09,30.02,29.82,10,10,10,26,5,31,0.00,4,,198
2010-11-26,42,30,18,25,18,12,88,64,40,30.16,30.09,29.90,10,10,10,16,4,18,0.00,0,,253
2010-11-27,43,30,17,29,22,14,92,71,49,30.02,29.83,29.54,10,10,10,13,2,15,0.00,0,,164
2010-11-28,36,30,23,26,22,19,88,76,64,29.68,29.53,29.43,10,9,5,35,17,44,T,3,Snow,353
2010-11-29,23,22,20,21,17,10,92,76,59,30.24,29.89,29.59,10,3,0,48,34,60,0.09,6,Snow,332
2010-11-30,29,18,6,15,10,4,83,65,46,30.25,30.21,30.15,10,10,10,31,12,38,0.00,1,,333